ADDS METAR Data INFO
IDs: Format: Raw Decoded Include TAF

Data at: 1945 UTC 17 Feb 2018

KANK 171935Z AUTO 25016G28KT 10SM CLR 08/M17 A3017 RMK AO1 T00821170
KANK 171915Z AUTO 25021G28KT 10SM CLR 09/M17 A3017 RMK AO1 T00851173
KANK 171855Z AUTO 26018G27KT 10SM CLR 08/M18 A3018 RMK AO1 T00841178
KANK 171835Z AUTO 26019G31KT 10SM CLR 08/M18 A3018 RMK AO1 T00791182
KANK 171815Z AUTO 26018G31KT 10SM CLR 07/M18 A3019 RMK AO1 T00731183
KANK 171755Z AUTO 25022G33KT 10SM CLR 07/M19 A3017 RMK AO1 T00661189 10066 20005
KANK 171735Z AUTO 25024G32KT 10SM CLR 06/M19 A3018 RMK AO1 T00621192
KANK 171715Z AUTO 25023G31KT 10SM CLR 06/M19 A3018 RMK AO1 T00561188
KANK 171655Z AUTO 26026G35KT 10SM CLR 05/M18 A3017 RMK AO1 T00531185
KANK 171635Z AUTO 26023G30KT 10SM CLR 05/M18 A3017 RMK AO1 T00471184
KANK 171615Z AUTO 25021G32KT 10SM CLR 04/M18 A3017 RMK AO1 T00421179
KANK 171555Z AUTO 25020G33KT 10SM CLR 04/M17 A3017 RMK AO1 T00361171
KANK 171535Z AUTO 26022G31KT 10SM CLR 03/M17 A3017 RMK AO1 T00301166
KANK 171515Z AUTO 25021G31KT 10SM CLR 03/M16 A3016 RMK AO1 T00261164
KANK 171455Z AUTO 27023G31KT 10SM CLR 02/M16 A3016 RMK AO1 T00191160
KANK 171435Z AUTO 25024G37KT 10SM CLR 02/M15 A3014 RMK AO1 T00151152
KANK 171415Z AUTO 25025G36KT 10SM CLR 01/M14 A3013 RMK AO1 T00091145
KANK 171355Z AUTO 26024G31KT 10SM CLR 01/M14 A3014 RMK AO1 T00061140
KANK 171335Z AUTO 25024G34KT 10SM CLR 01/M14 A3014 RMK AO1 T00071140
KANK 171315Z AUTO 27024G31KT 10SM CLR 01/M14 A3014 RMK AO1 T00081136
KANK 171255Z AUTO 26027G34KT 10SM CLR 01/M13 A3013 RMK AO1 T00071135
KANK 171235Z AUTO 26018G28KT 10SM CLR 01/M13 A3013 RMK AO1 T00071131
KANK 171215Z AUTO 26024G32KT 10SM CLR 01/M13 A3013 RMK AO1 T00081130
KANK 171155Z AUTO 25022G30KT 10SM CLR 01/M13 A3011 RMK AO1 T00091134 10015 20006
KANK 171135Z AUTO 26015G25KT 10SM CLR 01/M13 A3012 RMK AO1 T00091132
KANK 171115Z AUTO 26017G30KT 10SM CLR 01/M13 A3012 RMK AO1 T00071129
KANK 171055Z AUTO 25013G25KT 10SM CLR 01/M13 A3012 RMK AO1 T00111132
KANK 171035Z AUTO 26020G31KT 10SM CLR 01/M13 A3011 RMK AO1 T00101130
KANK 171015Z AUTO 25013G23KT 10SM CLR 01/M13 A3011 RMK AO1 T00091127
KANK 170955Z AUTO 26019G27KT 10SM CLR 01/M13 A3012 RMK AO1 T00111128
KANK 170935Z AUTO 26019G28KT 10SM SCT090 01/M13 A3011 RMK AO1 T00131130
KANK 170915Z AUTO 26023G29KT 10SM SCT070 BKN085 01/M13 A3011 RMK AO1 T00111127
KANK 170855Z AUTO 25014G23KT 10SM OVC070 01/M13 A3011 RMK AO1 T00131130
KANK 170835Z AUTO 00000KT 10SM BKN075 BKN090 01/M13 A3012 RMK AO1 T00111135
KANK 170815Z AUTO 28010G22KT 10SM SCT075 01/M14 A3010 RMK AO1 T00121141
KANK 170755Z AUTO 29007G22KT 10SM CLR 01/M14 A3009 RMK AO1 T00101140
KANK 170735Z AUTO 14003G20KT 10SM CLR 01/M14 A3007 RMK AO1 T00101145
KANK 170715Z AUTO 00000KT 10SM CLR 01/M14 A3006 RMK AO1 T00101144
KANK 170655Z AUTO 28003G14KT 10SM CLR 01/M15 A3005 RMK AO1 T00121146
KANK 170635Z AUTO 27009G20KT 10SM CLR 01/M15 A3004 RMK AO1 T00111147
KANK 170615Z AUTO 28008G22KT 240V300 10SM CLR 01/M15 A3004 RMK AO1 T00121148
KANK 170555Z AUTO 25021G30KT 10SM CLR 01/M14 A3001 RMK AO1 T00131145 10048 20012 400811051
KANK 170535Z AUTO 26021G31KT 10SM CLR 02/M14 A3000 RMK AO1 T00151144
KANK 170515Z AUTO 26024G35KT 10SM CLR 02/M14 A3000 RMK AO1 T00161145
KANK 170455Z AUTO 25020G36KT 10SM CLR 02/M14 A3000 RMK AO1 T00161142
KANK 170435Z AUTO 25021G30KT 10SM CLR 02/M14 A3000 RMK AO1 T00151137
KANK 170415Z AUTO 24024G36KT 10SM CLR 02/M13 A3000 RMK AO1 T00151130
KANK 170355Z AUTO 24022G28KT 10SM CLR 01/M12 A3002 RMK AO1 T00121124
KANK 170335Z AUTO 25018G26KT 10SM CLR 02/M13 A3004 RMK AO1 T00161126
KANK 170315Z AUTO 25017G29KT 10SM CLR 02/M13 A3004 RMK AO1 T00151127
KANK 170255Z AUTO 25018G25KT 10SM CLR 02/M13 A3003 RMK AO1 T00161132
KANK 170235Z AUTO 25016G25KT 10SM CLR 02/M14 A3003 RMK AO1 T00181140
KANK 170215Z AUTO 25016G24KT 10SM CLR 02/M14 A3004 RMK AO1 T00201145
KANK 170155Z AUTO 25014G25KT 10SM CLR 02/M15 A3005 RMK AO1 T00231152
KANK 170135Z AUTO 24014G22KT 10SM CLR 02/M16 A3004 RMK AO1 T00241159
KANK 170115Z AUTO 24013G19KT 10SM CLR 03/M17 A3005 RMK AO1 T00261168
KANK 170055Z AUTO 24011G16KT 10SM CLR 03/M18 A3005 RMK AO1 T00311181
KANK 170035Z AUTO 22015G20KT 10SM CLR 04/M20 A3005 RMK AO1 T00401203
KANK 170015Z AUTO 22012G16KT 10SM CLR 05/M17 A3006 RMK AO1 T00451175
KANK 162355Z AUTO 21009G15KT 10SM CLR 05/M16 A3006 RMK AO1 T00491160 10081 20049
KANK 162335Z AUTO 21009G18KT 10SM CLR 06/M17 A3007 RMK AO1 T00551167
KANK 162315Z AUTO 21012G28KT 10SM CLR 06/M17 A3007 RMK AO1 T00591166
KANK 162255Z AUTO 20014G26KT 10SM CLR 06/M19 A3007 RMK AO1 T00641188
KANK 162235Z AUTO 23018G28KT 10SM CLR 07/M18 A3007 RMK AO1 T00671180
KANK 162215Z AUTO 25012G22KT 10SM CLR 07/M20 A3007 RMK AO1 T00711200
KANK 162155Z AUTO 23013G23KT 200V260 10SM CLR 07/M18 A3007 RMK AO1 T00731182
KANK 162135Z AUTO 25012G23KT 10SM CLR 08/M19 A3007 RMK AO1 T00771186
KANK 162115Z AUTO 26017G27KT 220V280 10SM CLR 07/M18 A3008 RMK AO1 T00711178
KANK 162055Z AUTO 23013G24KT 10SM CLR 07/M19 A3009 RMK AO1 T00701187
KANK 162035Z AUTO 24021G29KT 10SM CLR 08/M18 A3010 RMK AO1 T00771184
KANK 162015Z AUTO 24017G24KT 10SM CLR 08/M16 A3011 RMK AO1 T00771159
KANK 161955Z AUTO 25014G27KT 10SM CLR 07/M16 A3012 RMK AO1 T00741160
KANK 161935Z AUTO 26017G26KT 10SM CLR 07/M18 A3014 RMK AO1 T00681176
KANK 161915Z AUTO 26016G25KT 10SM CLR 07/M16 A3015 RMK AO1 T00741162
KANK 161855Z AUTO 25011G19KT 10SM CLR 07/M17 A3017 RMK AO1 T00661174
KANK 161835Z AUTO 28011G20KT 10SM CLR 06/M20 A3018 RMK AO1 T00631197
KANK 161815Z AUTO 27015G23KT 250V310 10SM CLR 06/M18 A3019 RMK AO1 T00621184
KANK 161755Z AUTO 24013G21KT 200V280 10SM CLR 06/M20 A3021 RMK AO1 T00591199 10060 21051
KANK 161735Z AUTO 00000KT 10SM CLR 05/M14 A3023 RMK AO1 T00451139
KANK 161715Z AUTO 18011G18KT 140V200 10SM CLR 04/M12 A3024 RMK AO1 T00351119
KANK 161655Z AUTO 20014G19KT 10SM CLR 03/M12 A3025 RMK AO1 T00311125
KANK 161635Z AUTO 00000KT 10SM CLR 02/M13 A3025 RMK AO1 T00171129
KANK 161615Z AUTO 00000KT 10SM CLR 01/M13 A3026 RMK AO1 T00081128
KANK 161555Z AUTO 15004KT 10SM CLR M01/M13 A3027 RMK AO1 T10071127
KANK 161535Z AUTO 33006KT 10SM CLR M02/M13 A3027 RMK AO1 T10211131
KANK 161515Z AUTO 14003G20KT 10SM CLR 00/M13 A3026 RMK AO1 T10031134
KANK 161455Z AUTO 21012G21KT 10SM CLR 00/M14 A3025 RMK AO1 T10051139
KANK 161435Z AUTO 21014G22KT 10SM CLR M01/M14 A3027 RMK AO1 T10101136
KANK 161415Z AUTO 23013G23KT 10SM CLR M01/M13 A3026 RMK AO1 T10151130
KANK 161355Z AUTO 21015G21KT 10SM CLR M02/M13 A3027 RMK AO1 T10181128
KANK 161335Z AUTO 23008G15KT 10SM CLR M02/M12 A3026 RMK AO1 T10191124
KANK 161315Z AUTO 26009G14KT 220V320 10SM CLR M03/M12 A3027 RMK AO1 T10271120
KANK 161255Z AUTO 00000KT 10SM CLR M05/M11 A3027 RMK AO1 T10471113
KANK 161235Z AUTO 17003KT 10SM CLR M03/M11 A3027 RMK AO1 T10271111
KANK 161215Z AUTO 27003KT 10SM CLR M04/M11 A3027 RMK AO1 T10441113
KANK 161155Z AUTO 32004KT 10SM CLR M02/M12 A3026 RMK AO1 T10201121 10000 21020
KANK 161135Z AUTO 25008KT 10SM CLR M02/M12 A3025 RMK AO1 T10181121
KANK 161115Z AUTO 21005KT 10SM CLR M01/M12 A3026 RMK AO1 T10151120
KANK 161055Z AUTO 25009G15KT 10SM CLR M01/M12 A3026 RMK AO1 T10121123
KANK 161035Z AUTO 25011G16KT 10SM CLR M01/M12 A3026 RMK AO1 T10111121
KANK 161015Z AUTO 24012G17KT 10SM CLR M01/M12 A3025 RMK AO1 T10101118
KANK 160955Z AUTO 23015G20KT 10SM CLR M01/M12 A3025 RMK AO1 T10071118
KANK 160935Z AUTO 23011G14KT 10SM CLR M01/M11 A3027 RMK AO1 T10091110
KANK 160915Z AUTO 22008KT 10SM CLR M01/M10 A3027 RMK AO1 T10111096
KANK 160855Z AUTO 22006KT 10SM CLR M01/M10 A3027 RMK AO1 T10121098
KANK 160835Z AUTO 19005KT 10SM SCT065 00/M10 A3027 RMK AO1 T10051096
KANK 160815Z AUTO 24007KT 10SM OVC065 00/M10 A3027 RMK AO1 T10021096
KANK 160755Z AUTO 21005KT 10SM OVC075 00/M09 A3026 RMK AO1 T00001090